Time;durP1;ratioP1;P1;durP2;ratioP2;P2;SDS_P1;SDS_P2;PMS_P1;PMS_P2;Temp;Humidity;BMP_temperature;BMP_pressure;BME280_temperature;BME280_humidity;BME280_pressure;Samples;Min_cycle;Max_cycle;Signal;HPM_P1;HPM_P2
2021/03/04 00:01:25;;;;;;;130.83;50.93;;;5.60;95.30;;;;;;4408839;32;20250;-65
2021/03/04 00:03:52;;;;;;;145.43;53.63;;;5.60;95.40;;;;;;4403696;32;20168;-63
2021/03/04 00:06:18;;;;;;;137.07;52.43;;;5.40;95.70;;;;;;4395389;32;20213;-63
2021/03/04 00:08:44;;;;;;;140.13;52.13;;;5.50;95.60;;;;;;4406610;32;20182;-65
2021/03/04 00:11:10;;;;;;;148.73;56.37;;;5.50;95.40;;;;;;4407673;32;20187;-63
2021/03/04 00:13:37;;;;;;;131.77;50.60;;;5.50;95.40;;;;;;4408099;32;20187;-65
2021/03/04 00:16:05;;;;;;;129.97;50.60;;;5.50;95.40;;;;;;4406114;32;20223;-63
2021/03/04 00:18:31;;;;;;;137.53;53.97;;;5.50;95.20;;;;;;4408197;32;20219;-64
2021/03/04 00:20:57;;;;;;;131.13;52.10;;;5.60;95.20;;;;;;4407258;32;20179;-64
2021/03/04 00:23:26;;;;;;;126.83;50.37;;;5.50;95.10;;;;;;4406323;32;20165;-65
2021/03/04 00:25:52;;;;;;;144.97;53.40;;;5.40;95.20;;;;;;4406451;32;20137;-64
2021/03/04 00:28:18;;;;;;;136.40;50.93;;;5.40;95.40;;;;;;4406680;32;20639;-66
2021/03/04 00:30:46;;;;;;;132.70;51.93;;;5.40;95.30;;;;;;4408264;32;20163;-65
2021/03/04 00:33:12;;;;;;;124.97;52.57;;;5.40;95.30;;;;;;4406743;32;20231;-66
2021/03/04 00:35:38;;;;;;;123.03;49.37;;;5.40;95.40;;;;;;4406522;32;20258;-64
2021/03/04 00:38:05;;;;;;;131.97;52.27;;;5.40;95.50;;;;;;4406153;32;20178;-66
2021/03/04 00:40:32;;;;;;;122.60;50.37;;;5.30;95.50;;;;;;4408199;32;20168;-65
2021/03/04 00:43:01;;;;;;;123.80;50.20;;;5.30;95.50;;;;;;4406461;32;20654;-65
2021/03/04 00:45:28;;;;;;;131.03;51.70;;;5.30;95.50;;;;;;4407633;32;20317;-64
2021/03/04 00:47:58;;;;;;;119.23;48.27;;;5.30;95.60;;;;;;4406074;32;20174;-63
2021/03/04 00:50:24;;;;;;;114.30;48.47;;;5.20;95.70;;;;;;4406260;32;20270;-65
2021/03/04 01:02:58;;;;;;;103.53;43.07;;;5.30;95.70;;;;;;4401915;32;20481;-67
2021/03/04 01:05:26;;;;;;;104.30;43.30;;;5.40;95.40;;;;;;4391086;32;20147;-63
2021/03/04 01:07:53;;;;;;;107.90;44.53;;;5.40;95.50;;;;;;4397592;32;20492;-66
2021/03/04 01:10:22;;;;;;;112.43;45.63;;;5.40;95.40;;;;;;4395185;32;20186;-63
2021/03/04 01:12:49;;;;;;;102.97;43.93;;;5.40;95.20;;;;;;4406456;32;20155;-64
2021/03/04 01:15:18;;;;;;;111.47;45.27;;;5.40;95.60;;;;;;4407715;32;20178;-61
2021/03/04 01:17:45;;;;;;;114.30;46.17;;;5.50;95.00;;;;;;4405828;32;20147;-65
2021/03/04 01:20:17;;;;;;;118.90;49.60;;;5.30;95.20;;;;;;4408247;32;20182;-62
2021/03/04 01:22:44;;;;;;;120.10;48.10;;;4.90;96.20;;;;;;4396312;32;20207;-65
2021/03/04 01:25:11;;;;;;;116.77;46.03;;;4.90;96.20;;;;;;4406109;32;20176;-64
2021/03/04 01:27:38;;;;;;;109.93;45.70;;;4.80;96.30;;;;;;4398376;32;20151;-64
2021/03/04 01:30:06;;;;;;;98.70;43.90;;;4.90;96.30;;;;;;4405062;32;20171;-65
2021/03/04 01:32:33;;;;;;;98.80;40.70;;;5.00;95.90;;;;;;4406186;32;20220;-64
2021/03/04 01:35:00;;;;;;;102.80;41.90;;;5.10;95.70;;;;;;4407543;32;20227;-63
2021/03/04 01:37:27;;;;;;;91.23;39.27;;;5.20;95.60;;;;;;4406775;32;20188;-65
2021/03/04 01:39:54;;;;;;;92.63;38.87;;;5.20;95.20;;;;;;4406456;32;20174;-62
2021/03/04 01:42:25;;;;;;;92.50;39.80;;;5.20;95.10;;;;;;4405226;32;20197;-66
2021/03/04 01:44:51;;;;;;;102.70;42.13;;;5.30;94.90;;;;;;4405593;32;20148;-66
2021/03/04 01:47:20;;;;;;;99.23;41.50;;;5.20;94.90;;;;;;4405553;32;20171;-65
2021/03/04 01:49:48;;;;;;;101.07;40.97;;;5.10;95.00;;;;;;4406459;32;20150;-64
2021/03/04 01:52:14;;;;;;;100.20;42.93;;;5.20;95.30;;;;;;4407410;32;20144;-63
2021/03/04 01:54:45;;;;;;;104.57;43.13;;;5.20;95.10;;;;;;4404800;32;20177;-63
2021/03/04 01:57:14;;;;;;;95.80;40.10;;;5.20;95.10;;;;;;4406239;32;20152;-66
2021/03/04 01:59:41;;;;;;;92.77;41.70;;;5.20;94.90;;;;;;4405358;32;20147;-66
2021/03/04 02:02:07;;;;;;;131.87;50.90;;;5.20;95.10;;;;;;4405480;32;20483;-64
2021/03/04 02:04:34;;;;;;;116.90;43.70;;;4.80;95.90;;;;;;4406470;32;20217;-64
2021/03/04 02:07:07;;;;;;;112.20;43.77;;;4.80;96.30;;;;;;4406382;32;20163;-63
2021/03/04 02:09:37;;;;;;;148.57;52.93;;;4.80;96.40;;;;;;4406118;32;20168;-65
2021/03/04 02:12:13;;;;;;;129.07;47.90;;;4.70;96.60;;;;;;4404858;32;20152;-66
2021/03/04 02:14:50;;;;;;;146.23;52.97;;;4.80;96.60;;;;;;4404378;32;20197;-64
2021/03/04 02:17:19;;;;;;;123.77;44.87;;;4.90;96.40;;;;;;4405051;32;20177;-64
2021/03/04 02:19:51;;;;;;;116.50;45.93;;;4.90;96.40;;;;;;4404428;32;20208;-65
2021/03/04 02:22:31;;;;;;;110.93;46.30;;;5.10;95.90;;;;;;4405085;32;20193;-63
2021/03/04 02:25:07;;;;;;;97.87;43.23;;;5.10;95.70;;;;;;4406532;32;20168;-64
2021/03/04 02:27:36;;;;;;;112.77;47.77;;;5.10;95.70;;;;;;4404213;32;20265;-64
2021/03/04 02:30:06;;;;;;;116.73;47.20;;;5.20;95.50;;;;;;4418883;32;20167;-63
2021/03/04 02:32:34;;;;;;;122.77;47.87;;;5.00;95.80;;;;;;4405404;32;20576;-65
2021/03/04 02:35:05;;;;;;;116.87;46.07;;;4.80;96.10;;;;;;4403538;32;20203;-65
2021/03/04 02:37:36;;;;;;;114.87;44.40;;;4.90;96.20;;;;;;4394929;32;20223;-63
2021/03/04 02:40:05;;;;;;;96.97;41.83;;;4.90;96.00;;;;;;4404179;32;20159;-64
2021/03/04 02:42:33;;;;;;;114.47;46.03;;;5.00;96.00;;;;;;4406761;32;20165;-66
2021/03/04 02:45:00;;;;;;;103.10;42.73;;;5.00;95.80;;;;;;4407565;32;20224;-64
2021/03/04 02:47:27;;;;;;;94.17;39.73;;;5.00;95.70;;;;;;4407996;32;20184;-66
2021/03/04 02:49:55;;;;;;;89.03;38.17;;;5.00;95.70;;;;;;4407771;32;20200;-64
2021/03/04 02:52:22;;;;;;;88.60;37.93;;;5.00;95.60;;;;;;4408740;32;20184;-64
2021/03/04 02:54:50;;;;;;;85.47;38.10;;;5.00;95.50;;;;;;4409529;32;20174;-65
2021/03/04 02:57:18;;;;;;;77.60;36.00;;;5.00;95.50;;;;;;4408013;32;20217;-64
2021/03/04 02:59:46;;;;;;;89.83;39.10;;;4.90;95.50;;;;;;4408397;32;20155;-65
2021/03/04 03:02:14;;;;;;;105.90;42.83;;;4.80;95.80;;;;;;4409693;32;20164;-64
2021/03/04 03:04:42;;;;;;;105.33;42.27;;;4.70;96.40;;;;;;4407930;32;20175;-63
2021/03/04 03:07:11;;;;;;;108.03;43.60;;;4.70;96.60;;;;;;4407336;32;20160;-66
2021/03/04 03:09:39;;;;;;;120.50;44.87;;;4.60;96.90;;;;;;4407945;32;20148;-66
2021/03/04 03:12:07;;;;;;;112.03;43.30;;;4.50;97.00;;;;;;4407707;32;20148;-64
2021/03/04 03:14:34;;;;;;;138.23;49.97;;;4.70;97.00;;;;;;4419584;32;20163;-65
2021/03/04 03:17:00;;;;;;;113.03;43.20;;;4.60;97.00;;;;;;4408160;32;20195;-63
2021/03/04 03:19:28;;;;;;;111.27;44.37;;;4.70;97.00;;;;;;4408720;32;20173;-63
2021/03/04 03:21:55;;;;;;;111.20;44.80;;;4.80;96.80;;;;;;4408690;32;20529;-63
2021/03/04 03:24:21;;;;;;;115.77;44.63;;;4.90;96.60;;;;;;4406913;32;20490;-63
2021/03/04 03:26:48;;;;;;;104.23;42.10;;;4.90;96.50;;;;;;4407286;32;20211;-63
2021/03/04 03:29:14;;;;;;;107.03;44.00;;;5.00;96.50;;;;;;4408455;32;20155;-64
2021/03/04 03:51:56;;;;;;;98.20;40.77;;;4.80;96.60;;;;;;4407971;32;20222;-65
2021/03/04 03:54:23;;;;;;;96.77;40.13;;;4.80;96.50;;;;;;4406952;32;20220;-66
2021/03/04 03:56:50;;;;;;;94.53;39.87;;;4.70;96.50;;;;;;4407684;32;20227;-64
2021/03/04 03:59:16;;;;;;;93.63;39.30;;;4.80;96.50;;;;;;4406443;32;20184;-65
2021/03/04 04:01:43;;;;;;;94.20;40.17;;;5.00;96.50;;;;;;4406242;32;20208;-64
2021/03/04 04:04:10;;;;;;;83.53;38.23;;;4.90;96.60;;;;;;4407191;32;20141;-63
2021/03/04 04:06:36;;;;;;;92.03;39.57;;;4.90;96.10;;;;;;4407493;32;20217;-64
2021/03/04 04:09:03;;;;;;;84.07;36.47;;;4.90;96.10;;;;;;4406916;32;20565;-65
2021/03/04 04:11:30;;;;;;;97.57;38.03;;;4.90;96.00;;;;;;4407260;32;20223;-65
2021/03/04 04:13:57;;;;;;;78.07;35.20;;;5.00;95.80;;;;;;4406030;32;20234;-65
2021/03/04 04:16:26;;;;;;;92.73;40.07;;;5.00;95.80;;;;;;4406108;32;20145;-64
2021/03/04 04:18:52;;;;;;;81.20;36.37;;;4.90;95.80;;;;;;4407074;32;20647;-62
2021/03/04 04:21:22;;;;;;;76.87;35.87;;;4.80;96.20;;;;;;4406409;32;20631;-63
2021/03/04 04:23:50;;;;;;;88.40;37.37;;;4.90;95.80;;;;;;4408138;32;20248;-63
2021/03/04 04:26:17;;;;;;;80.50;35.73;;;5.00;95.90;;;;;;4406530;32;20320;-62
2021/03/04 04:28:44;;;;;;;95.23;39.73;;;5.00;95.80;;;;;;4407258;32;20216;-64
2021/03/04 04:31:10;;;;;;;103.57;41.57;;;4.70;95.90;;;;;;4408006;32;20170;-66
2021/03/04 04:33:37;;;;;;;87.83;38.30;;;4.50;96.50;;;;;;4406447;32;20525;-62
2021/03/04 04:36:04;;;;;;;92.20;40.50;;;4.60;96.50;;;;;;4405643;32;20165;-65
2021/03/04 04:38:31;;;;;;;82.70;37.83;;;4.60;96.30;;;;;;4406256;32;20171;-64
2021/03/04 04:40:57;;;;;;;79.93;35.87;;;4.70;96.10;;;;;;4406176;32;20227;-64
2021/03/04 04:43:26;;;;;;;76.40;33.17;;;4.80;95.70;;;;;;4406242;32;20625;-63
2021/03/04 04:45:52;;;;;;;71.80;33.63;;;4.80;95.60;;;;;;4407749;32;20153;-63
2021/03/04 04:48:18;;;;;;;67.60;32.50;;;4.80;95.50;;;;;;4406276;32;20188;-64
2021/03/04 04:50:45;;;;;;;62.63;31.47;;;4.80;95.40;;;;;;4395803;32;20249;-63
2021/03/04 04:53:11;;;;;;;74.53;33.13;;;4.80;95.30;;;;;;4401559;32;20218;-63
2021/03/04 04:55:37;;;;;;;74.50;35.00;;;4.80;95.10;;;;;;4403143;32;20167;-62
2021/03/04 04:58:04;;;;;;;70.23;32.67;;;4.70;95.20;;;;;;4406466;32;20214;-64
2021/03/04 05:00:31;;;;;;;70.93;33.67;;;4.70;95.20;;;;;;4406101;32;20226;-63
2021/03/04 05:02:57;;;;;;;63.77;32.60;;;4.70;95.20;;;;;;4407793;32;20151;-63
2021/03/04 05:05:24;;;;;;;62.73;31.90;;;4.80;95.30;;;;;;4405945;32;20214;-63
2021/03/04 05:07:50;;;;;;;78.57;35.00;;;4.80;95.20;;;;;;4400603;32;20193;-63
2021/03/04 05:10:17;;;;;;;71.43;32.73;;;4.60;95.30;;;;;;4395570;32;20227;-63
2021/03/04 05:12:43;;;;;;;71.50;33.57;;;4.60;95.50;;;;;;4405086;32;20213;-62
2021/03/04 05:15:11;;;;;;;74.20;32.93;;;4.70;95.40;;;;;;4399798;32;20261;-63
2021/03/04 05:17:38;;;;;;;82.07;35.00;;;4.80;95.30;;;;;;4405778;32;20811;-62
2021/03/04 05:20:07;;;;;;;85.10;37.50;;;4.80;95.10;;;;;;4405752;32;20157;-63
2021/03/04 05:22:34;;;;;;;77.47;36.27;;;4.60;95.30;;;;;;4405323;32;20227;-66
2021/03/04 05:25:00;;;;;;;84.10;37.67;;;4.50;95.80;;;;;;4406094;32;20227;-63
2021/03/04 05:27:26;;;;;;;81.63;35.97;;;4.60;95.80;;;;;;4404622;32;20519;-62
2021/03/04 05:29:53;;;;;;;79.33;35.60;;;4.70;95.80;;;;;;4413878;32;20309;-64
2021/03/04 05:32:19;;;;;;;76.93;33.97;;;4.80;95.50;;;;;;4412233;32;20173;-63
2021/03/04 05:34:46;;;;;;;86.97;38.93;;;4.80;95.30;;;;;;4406799;32;20246;-63
2021/03/04 05:37:13;;;;;;;97.17;40.23;;;4.80;95.30;;;;;;4405671;32;20478;-64
2021/03/04 05:39:40;;;;;;;100.00;41.40;;;4.60;95.50;;;;;;4407132;32;20223;-66
2021/03/04 05:42:07;;;;;;;83.47;36.43;;;4.60;95.80;;;;;;4404873;32;20203;-64
2021/03/04 05:44:35;;;;;;;80.60;36.90;;;4.70;95.70;;;;;;4406835;32;20640;-63
2021/03/04 05:47:03;;;;;;;95.77;37.90;;;4.80;95.60;;;;;;4396735;32;20660;-65
2021/03/04 05:49:30;;;;;;;95.10;39.80;;;4.60;95.70;;;;;;4404922;32;20623;-63
2021/03/04 05:52:01;;;;;;;93.90;38.63;;;4.60;95.80;;;;;;4406210;32;20257;-65
2021/03/04 05:54:28;;;;;;;90.07;38.37;;;4.60;96.00;;;;;;4405324;32;20226;-64
2021/03/04 05:56:57;;;;;;;91.50;37.40;;;4.60;96.00;;;;;;4405246;32;20168;-62
2021/03/04 05:59:25;;;;;;;89.70;36.97;;;4.70;95.60;;;;;;4404945;32;20149;-66
2021/03/04 06:01:52;;;;;;;86.10;36.50;;;4.70;95.40;;;;;;4405078;32;20263;-68
2021/03/04 06:04:18;;;;;;;80.20;35.03;;;4.60;95.50;;;;;;4406745;32;20150;-66
2021/03/04 06:06:45;;;;;;;74.00;33.90;;;4.90;95.50;;;;;;4405510;32;20234;-66
2021/03/04 06:09:12;;;;;;;71.67;33.30;;;4.80;95.10;;;;;;4406967;32;20293;-65
2021/03/04 06:11:39;;;;;;;75.70;33.27;;;4.80;95.00;;;;;;4395924;32;20619;-64
2021/03/04 06:14:05;;;;;;;77.83;35.87;;;4.80;94.90;;;;;;4395848;32;20269;-65
2021/03/04 06:16:32;;;;;;;79.20;32.80;;;4.70;94.80;;;;;;4402648;32;20200;-63
2021/03/04 06:19:01;;;;;;;77.03;32.90;;;4.60;95.00;;;;;;4399313;32;20190;-64
2021/03/04 06:21:28;;;;;;;74.00;33.70;;;4.70;95.30;;;;;;4397835;32;20214;-65
2021/03/04 06:23:56;;;;;;;73.20;32.03;;;4.80;94.90;;;;;;4403782;32;20248;-64
2021/03/04 06:26:35;;;;;;;80.10;33.57;;;4.80;94.70;;;;;;4403408;32;20163;-64
2021/03/04 06:29:12;;;;;;;75.37;31.83;;;4.60;94.90;;;;;;4390031;32;20156;-64
2021/03/04 06:31:38;;;;;;;79.23;34.23;;;4.70;94.90;;;;;;4396402;32;20146;-63
2021/03/04 06:34:16;;;;;;;75.07;33.10;;;4.80;94.60;;;;;;4399040;32;20152;-63
2021/03/04 06:36:52;;;;;;;77.50;31.57;;;4.80;94.60;;;;;;4398145;32;20185;-62
2021/03/04 06:39:22;;;;;;;81.20;34.43;;;4.60;94.80;;;;;;4396369;32;20228;-63
2021/03/04 06:42:01;;;;;;;76.47;30.47;;;4.40;95.20;;;;;;4393944;32;20152;-63
2021/03/04 06:44:40;;;;;;;71.17;29.83;;;4.60;95.10;;;;;;4399152;32;20254;-64
2021/03/04 06:47:09;;;;;;;70.13;30.73;;;4.70;95.00;;;;;;4400811;32;20629;-65
2021/03/04 06:49:42;;;;;;;81.40;31.80;;;4.80;94.60;;;;;;4398616;32;20529;-65
2021/03/04 06:52:23;;;;;;;82.17;31.50;;;4.70;94.60;;;;;;4397680;32;20156;-65
2021/03/04 06:54:50;;;;;;;80.33;30.63;;;4.70;94.70;;;;;;4397574;32;20225;-65
2021/03/04 06:57:19;;;;;;;78.70;31.93;;;4.80;94.60;;;;;;4399166;32;20202;-63
2021/03/04 06:59:55;;;;;;;77.53;32.63;;;4.80;94.40;;;;;;4400421;32;20282;-68
2021/03/04 07:02:29;;;;;;;86.50;33.63;;;4.80;94.20;;;;;;4396375;32;20217;-64
2021/03/04 07:04:59;;;;;;;80.27;31.63;;;4.70;94.50;;;;;;4398868;32;20196;-61
2021/03/04 07:07:27;;;;;;;76.07;31.17;;;4.70;94.70;;;;;;4399675;32;20144;-64
2021/03/04 07:09:56;;;;;;;78.77;30.47;;;4.80;94.50;;;;;;4398289;32;20170;-63
2021/03/04 07:12:25;;;;;;;76.73;30.97;;;4.80;94.40;;;;;;4400633;32;20151;-65
2021/03/04 07:14:52;;;;;;;77.87;30.47;;;4.90;94.20;;;;;;4398853;32;20284;-63
2021/03/04 07:17:22;;;;;;;79.20;31.77;;;4.90;94.10;;;;;;4404243;32;20171;-65
2021/03/04 07:19:50;;;;;;;75.67;30.77;;;5.00;94.10;;;;;;4405383;32;20155;-64
2021/03/04 07:22:18;;;;;;;69.17;30.13;;;4.90;94.20;;;;;;4399719;32;20259;-63
2021/03/04 07:24:46;;;;;;;83.03;32.67;;;5.00;94.00;;;;;;4389874;32;20644;-63
2021/03/04 07:27:15;;;;;;;79.83;30.43;;;5.00;93.80;;;;;;4398361;32;20238;-65
2021/03/04 07:29:43;;;;;;;76.90;32.43;;;5.00;93.90;;;;;;4402429;32;20163;-64
2021/03/04 07:32:11;;;;;;;81.13;32.67;;;5.10;93.70;;;;;;4405199;32;20183;-64
2021/03/04 07:34:42;;;;;;;81.03;31.93;;;5.00;93.70;;;;;;4397630;32;20286;-64
2021/03/04 07:37:09;;;;;;;74.40;30.70;;;5.10;93.80;;;;;;4398716;32;20203;-62
2021/03/04 07:39:37;;;;;;;80.70;31.87;;;5.10;93.70;;;;;;4406995;32;20182;-63
2021/03/04 07:42:18;;;;;;;88.03;34.93;;;5.20;93.70;;;;;;4406102;32;20225;-64
2021/03/04 07:44:45;;;;;;;81.63;33.13;;;5.10;94.00;;;;;;4402580;32;20494;-64
2021/03/04 07:47:12;;;;;;;81.33;32.17;;;5.20;93.90;;;;;;4401496;32;20156;-66
2021/03/04 07:49:41;;;;;;;87.20;33.73;;;5.20;93.70;;;;;;4397043;32;20152;-63
2021/03/04 07:52:10;;;;;;;95.43;35.17;;;5.20;93.70;;;;;;4399359;32;20171;-63
2021/03/04 07:54:38;;;;;;;88.00;36.23;;;5.30;93.80;;;;;;4399338;32;20174;-62
2021/03/04 07:57:08;;;;;;;87.77;33.73;;;5.40;93.50;;;;;;4392685;32;20141;-64
2021/03/04 07:59:51;;;;;;;90.43;33.23;;;5.40;93.60;;;;;;4392210;32;20148;-62
2021/03/04 08:02:29;;;;;;;86.13;34.67;;;5.50;93.50;;;;;;4392174;32;20158;-65
2021/03/04 08:05:07;;;;;;;96.07;37.07;;;5.60;93.40;;;;;;4404305;32;20167;-64
2021/03/04 08:07:33;;;;;;;84.30;33.63;;;5.60;93.20;;;;;;4408812;32;20163;-65
2021/03/04 08:10:08;;;;;;;93.47;34.97;;;5.60;93.10;;;;;;4402991;32;20170;-65
2021/03/04 08:12:48;;;;;;;86.10;34.80;;;5.70;93.10;;;;;;4393296;32;20135;-65
2021/03/04 08:15:16;;;;;;;91.90;34.87;;;5.60;93.00;;;;;;4395688;32;20175;-65
2021/03/04 08:17:42;;;;;;;87.30;35.00;;;5.60;93.00;;;;;;4403167;32;20256;-63
2021/03/04 08:20:10;;;;;;;89.37;35.73;;;5.60;92.90;;;;;;4396984;32;20148;-65
2021/03/04 08:22:44;;;;;;;86.83;36.53;;;5.50;93.00;;;;;;4393204;32;20257;-63
2021/03/04 08:25:13;;;;;;;87.77;37.10;;;5.50;93.10;;;;;;4402596;32;20159;-63
2021/03/04 08:27:41;;;;;;;90.07;35.17;;;5.50;93.20;;;;;;4406814;32;20140;-65
2021/03/04 08:30:09;;;;;;;85.87;34.63;;;5.50;93.40;;;;;;4405762;32;20473;-64
2021/03/04 08:32:37;;;;;;;87.60;34.53;;;5.40;93.30;;;;;;4406643;32;20147;-64
2021/03/04 08:35:14;;;;;;;77.40;32.67;;;5.40;93.70;;;;;;4407700;32;20147;-65
2021/03/04 08:37:40;;;;;;;70.87;32.00;;;5.40;93.70;;;;;;4404083;32;20196;-65
2021/03/04 08:40:08;;;;;;;79.57;32.97;;;5.50;93.50;;;;;;4408494;32;20183;-64
2021/03/04 08:42:34;;;;;;;75.73;32.83;;;5.50;93.70;;;;;;4406530;32;20217;-66
2021/03/04 08:45:00;;;;;;;73.17;32.47;;;5.50;93.60;;;;;;4404962;32;20148;-66
2021/03/04 08:47:27;;;;;;;71.63;32.10;;;5.60;93.40;;;;;;4406482;32;20208;-64
2021/03/04 08:49:56;;;;;;;61.20;28.73;;;5.60;93.50;;;;;;4406810;32;20136;-65
2021/03/04 08:52:25;;;;;;;66.20;30.63;;;5.60;93.40;;;;;;4397086;32;20155;-68
2021/03/04 08:54:53;;;;;;;75.30;31.37;;;5.60;93.20;;;;;;4397918;32;20166;-64
2021/03/04 08:57:24;;;;;;;67.03;30.93;;;5.50;93.60;;;;;;4392282;32;20581;-66
2021/03/04 09:00:06;;;;;;;83.60;33.77;;;5.60;93.70;;;;;;4390862;32;20158;-65
2021/03/04 09:02:33;;;;;;;63.87;30.03;;;5.30;94.10;;;;;;4398560;32;20169;-67
2021/03/04 09:05:00;;;;;;;66.37;27.53;;;5.30;94.00;;;;;;4406211;32;20198;-65
2021/03/04 09:07:34;;;;;;;60.20;26.10;;;5.40;93.70;;;;;;4405206;32;20190;-64
2021/03/04 09:10:01;;;;;;;58.73;26.37;;;5.50;93.60;;;;;;4398203;32;20156;-63
2021/03/04 09:12:29;;;;;;;59.20;27.13;;;5.50;93.60;;;;;;4401023;32;20148;-66
2021/03/04 09:14:56;;;;;;;51.87;24.60;;;5.60;93.40;;;;;;4390296;32;20261;-64
2021/03/04 09:17:23;;;;;;;61.23;27.53;;;5.60;93.20;;;;;;4397698;32;20168;-63
2021/03/04 09:19:54;;;;;;;65.67;28.27;;;5.50;93.30;;;;;;4392377;32;20160;-67
2021/03/04 09:22:25;;;;;;;57.97;26.17;;;5.30;93.80;;;;;;4390324;32;20152;-66
2021/03/04 09:24:52;;;;;;;47.53;21.57;;;5.30;94.00;;;;;;4391406;32;20152;-64
2021/03/04 09:27:20;;;;;;;44.37;21.67;;;5.20;94.10;;;;;;4390945;32;20154;-65
2021/03/04 09:29:46;;;;;;;46.47;20.83;;;5.20;94.20;;;;;;4392486;32;20197;-65
2021/03/04 09:32:13;;;;;;;50.43;21.70;;;5.30;94.10;;;;;;4392853;32;20214;-66
2021/03/04 09:34:42;;;;;;;46.97;20.53;;;5.30;93.90;;;;;;4395422;32;20170;-66
2021/03/04 09:37:10;;;;;;;48.57;20.03;;;5.40;93.80;;;;;;4392582;32;20150;-64
2021/03/04 09:39:43;;;;;;;49.10;19.87;;;5.50;93.80;;;;;;4391758;32;20186;-66
2021/03/04 09:42:10;;;;;;;43.27;19.53;;;5.30;93.90;;;;;;4394399;32;20171;-66
2021/03/04 09:44:48;;;;;;;42.60;19.07;;;5.50;93.70;;;;;;4399928;32;20650;-65
2021/03/04 09:47:17;;;;;;;42.47;18.77;;;5.60;93.50;;;;;;4390127;32;20168;-63
2021/03/04 09:49:44;;;;;;;39.57;18.63;;;5.60;93.50;;;;;;4393492;32;20147;-64
2021/03/04 09:52:21;;;;;;;42.03;19.60;;;5.50;93.60;;;;;;4395601;32;20155;-67
2021/03/04 09:54:50;;;;;;;42.00;18.60;;;5.50;93.90;;;;;;4389556;32;20156;-64
2021/03/04 09:57:25;;;;;;;40.20;19.27;;;5.50;93.70;;;;;;4392698;32;20344;-66
2021/03/04 09:59:53;;;;;;;42.07;19.10;;;5.50;94.10;;;;;;4392475;32;20705;-67
2021/03/04 10:02:20;;;;;;;42.23;18.53;;;5.50;94.20;;;;;;4395571;32;20160;-66
2021/03/04 10:04:54;;;;;;;40.80;19.70;;;5.40;94.10;;;;;;4394653;32;20231;-67
2021/03/04 10:07:25;;;;;;;40.87;18.50;;;5.60;93.80;;;;;;4390495;32;20230;-65
2021/03/04 10:09:56;;;;;;;38.47;18.03;;;5.50;94.00;;;;;;4351634;32;1258829;-66
2021/03/04 10:12:23;;;;;;;41.57;17.43;;;5.50;93.80;;;;;;4395030;32;20592;-67
2021/03/04 10:14:52;;;;;;;38.73;17.73;;;5.60;93.80;;;;;;4389337;32;20242;-66
2021/03/04 10:17:20;;;;;;;33.80;16.73;;;5.70;93.70;;;;;;4392050;32;20192;-67
2021/03/04 10:19:47;;;;;;;31.67;15.53;;;5.70;93.20;;;;;;4396168;32;20215;-65
2021/03/04 10:22:13;;;;;;;32.80;13.27;;;5.70;93.20;;;;;;4395054;32;20182;-67
2021/03/04 10:24:43;;;;;;;24.40;11.13;;;5.70;93.10;;;;;;4394687;32;20530;-65
2021/03/04 10:27:10;;;;;;;22.33;10.83;;;5.70;93.00;;;;;;4393414;32;20183;-65
2021/03/04 10:29:37;;;;;;;18.83;9.03;;;5.50;93.30;;;;;;4392361;32;20207;-64
2021/03/04 10:32:04;;;;;;;17.47;9.33;;;5.60;93.30;;;;;;4394835;32;20630;-65
2021/03/04 10:34:31;;;;;;;22.30;10.43;;;5.60;93.30;;;;;;4390900;32;20183;-66
2021/03/04 10:36:57;;;;;;;15.27;8.33;;;5.60;93.00;;;;;;4395775;32;20225;-65
2021/03/04 10:39:24;;;;;;;16.37;9.03;;;5.70;93.00;;;;;;4390976;32;20477;-65
2021/03/04 10:41:50;;;;;;;15.07;8.40;;;5.70;92.80;;;;;;4393614;32;20508;-65
2021/03/04 10:44:17;;;;;;;16.63;8.97;;;5.70;92.70;;;;;;4390998;32;20211;-65
2021/03/04 10:46:44;;;;;;;16.73;9.07;;;5.70;92.70;;;;;;4390912;32;20167;-65
2021/03/04 10:49:10;;;;;;;15.23;8.53;;;5.50;92.70;;;;;;4391050;32;20683;-66
2021/03/04 10:51:37;;;;;;;14.60;8.80;;;5.60;92.90;;;;;;4401393;32;20235;-65
2021/03/04 10:54:04;;;;;;;16.50;9.03;;;5.80;92.90;;;;;;4391631;32;20577;-67
2021/03/04 10:56:30;;;;;;;16.57;9.50;;;5.90;92.10;;;;;;4396469;32;20164;-64
2021/03/04 10:58:57;;;;;;;15.93;9.40;;;5.80;91.70;;;;;;4394635;32;20195;-66
2021/03/04 11:01:27;;;;;;;16.37;9.80;;;5.90;91.80;;;;;;4396532;32;20171;-68
2021/03/04 11:03:53;;;;;;;14.63;9.47;;;5.90;91.30;;;;;;4399223;32;20511;-67
2021/03/04 11:06:19;;;;;;;16.27;8.90;;;5.60;91.90;;;;;;4403215;32;20195;-67
2021/03/04 11:08:46;;;;;;;15.53;8.57;;;5.90;91.60;;;;;;4394794;32;20189;-64
2021/03/04 11:11:12;;;;;;;14.17;7.87;;;6.00;91.20;;;;;;4392677;32;20277;-68
2021/03/04 11:13:39;;;;;;;13.60;7.43;;;6.30;90.50;;;;;;4399576;32;20188;-65
2021/03/04 11:16:05;;;;;;;13.10;7.37;;;6.40;90.10;;;;;;4394719;32;20182;-64
2021/03/04 11:18:33;;;;;;;10.40;6.60;;;6.40;89.90;;;;;;4391317;32;20171;-67
2021/03/04 11:20:59;;;;;;;9.70;6.73;;;6.20;90.00;;;;;;4396477;32;20706;-64
2021/03/04 11:23:28;;;;;;;9.33;6.83;;;6.10;89.40;;;;;;4394863;32;20164;-68
2021/03/04 11:25:54;;;;;;;11.30;6.57;;;6.20;89.10;;;;;;4396155;32;20224;-65
2021/03/04 11:32:03;;;;;;;10.97;6.40;;;6.10;88.40;;;;;;4394534;32;20268;-68
2021/03/04 11:34:32;;;;;;;12.60;6.40;;;6.10;88.30;;;;;;4398571;32;20221;-65
2021/03/04 11:36:58;;;;;;;10.80;6.57;;;6.20;87.60;;;;;;4392355;32;20160;-67
2021/03/04 11:39:24;;;;;;;11.70;6.53;;;6.30;87.90;;;;;;4394241;32;20216;-66
2021/03/04 11:41:51;;;;;;;8.57;6.27;;;6.60;87.80;;;;;;4398529;32;20505;-65
2021/03/04 11:44:17;;;;;;;7.93;6.17;;;6.80;86.90;;;;;;4396271;32;20192;-65
2021/03/04 11:46:44;;;;;;;8.73;6.27;;;7.00;85.40;;;;;;4397214;32;20691;-66
2021/03/04 11:49:10;;;;;;;7.37;5.73;;;7.50;85.00;;;;;;4397394;32;20167;-68
2021/03/04 11:51:37;;;;;;;11.50;6.13;;;7.70;83.00;;;;;;4391526;32;20492;-64
2021/03/04 11:54:04;;;;;;;8.63;5.87;;;7.80;82.20;;;;;;4393938;32;20160;-66
2021/03/04 11:56:32;;;;;;;11.30;5.63;;;8.00;82.10;;;;;;4397700;32;20282;-66
2021/03/04 11:59:01;;;;;;;9.00;6.03;;;8.40;81.30;;;;;;4399730;32;20691;-68
2021/03/04 12:01:28;;;;;;;8.20;5.83;;;8.60;79.70;;;;;;4399267;32;20209;-66
2021/03/04 12:03:54;;;;;;;9.33;5.80;;;8.50;78.60;;;;;;4402397;32;20175;-68
2021/03/04 12:06:21;;;;;;;7.90;5.67;;;8.30;79.10;;;;;;4396031;32;20589;-67
2021/03/04 12:08:49;;;;;;;12.60;5.40;;;7.90;80.00;;;;;;4395456;32;20191;-65
2021/03/04 12:11:15;;;;;;;9.30;5.73;;;7.70;80.70;;;;;;4392918;32;20186;-67
2021/03/04 12:13:44;;;;;;;7.77;5.37;;;7.10;82.10;;;;;;4393520;32;20223;-68
2021/03/04 12:16:11;;;;;;;7.63;5.20;;;7.30;82.70;;;;;;4391951;32;20524;-66
2021/03/04 12:18:38;;;;;;;6.67;4.67;;;7.20;82.80;;;;;;4393581;32;20903;-64
2021/03/04 12:21:06;;;;;;;7.43;4.87;;;7.40;82.90;;;;;;4394895;32;20159;-66
2021/03/04 12:23:33;;;;;;;8.77;5.30;;;7.40;82.60;;;;;;4394658;32;20207;-65
2021/03/04 12:26:00;;;;;;;9.33;5.73;;;7.50;81.80;;;;;;4404519;32;20175;-63
2021/03/04 12:28:27;;;;;;;8.03;5.13;;;7.50;82.10;;;;;;4395698;32;20199;-65
2021/03/04 12:30:54;;;;;;;11.93;5.23;;;7.40;81.70;;;;;;4393631;32;20163;-63
2021/03/04 12:33:20;;;;;;;11.27;4.83;;;7.40;82.20;;;;;;4394569;32;20159;-65
2021/03/04 12:35:46;;;;;;;9.20;5.07;;;7.00;83.10;;;;;;4393440;32;20160;-67
2021/03/04 12:38:13;;;;;;;8.80;5.90;;;6.60;85.50;;;;;;4397736;32;20186;-65
2021/03/04 12:40:39;;;;;;;7.67;4.73;;;7.10;84.70;;;;;;4393236;32;20201;-66
2021/03/04 12:43:07;;;;;;;7.10;3.77;;;7.60;83.30;;;;;;4398296;32;20155;-68
2021/03/04 12:45:34;;;;;;;8.53;4.27;;;7.90;81.70;;;;;;4396669;32;20474;-68
2021/03/04 12:48:02;;;;;;;5.83;4.23;;;8.00;81.10;;;;;;4396492;32;20279;-68
2021/03/04 12:50:29;;;;;;;5.13;3.30;;;8.00;81.10;;;;;;4396267;32;20201;-67
2021/03/04 12:52:55;;;;;;;7.27;4.03;;;8.00;80.20;;;;;;4393763;32;20180;-68
2021/03/04 12:55:24;;;;;;;5.37;3.77;;;7.90;80.20;;;;;;4394912;32;20549;-68
2021/03/04 12:57:50;;;;;;;5.93;3.60;;;8.00;79.70;;;;;;4398235;32;20160;-66
2021/03/04 13:00:19;;;;;;;8.73;3.10;;;8.00;79.90;;;;;;4394923;32;20195;-67
2021/03/04 13:02:45;;;;;;;6.73;3.50;;;8.10;80.30;;;;;;4391311;32;20220;-65
2021/03/04 13:05:13;;;;;;;4.73;3.27;;;7.90;79.50;;;;;;4397027;32;20238;-67
2021/03/04 13:07:45;;;;;;;4.70;3.43;;;7.80;80.80;;;;;;4389996;32;20183;-68
2021/03/04 13:10:13;;;;;;;11.83;3.27;;;7.80;81.00;;;;;;4396226;32;20279;-67
2021/03/04 13:12:40;;;;;;;8.90;3.37;;;7.40;81.80;;;;;;4394470;32;20209;-67
2021/03/04 13:15:07;;;;;;;6.77;3.13;;;7.20;83.20;;;;;;4396105;32;20226;-69
2021/03/04 13:17:34;;;;;;;6.30;2.93;;;7.40;82.50;;;;;;4400344;32;20747;-66